MMAA/ACA METAR and TAF weather

Enter ICAO airport designator
Station Type Date Time Source
MMAA METAR 2022/12/04 04:47 UTC NOAA

MMAA 040447Z 00000KT 6SM FEW090 25/22 A2997 RMK 8/030 HZY


Station Type Date Time Source
MMAA Decoded METAR 2022/12/04 04:47 UTC NOAA

Acapulco / G. Alvarez, Mexico (MMAA) 16-46N 099-45W
Dec 03, 2022 - 11:47 PM EST / 2022.12.04 0447 UTC
Wind: Calm:0
Visibility: 6 mile(s):0
Sky conditions: mostly clear
Temperature: 77 F (25 C)
Dew Point: 71 F (22 C)
Relative Humidity: 83%
Pressure (altimeter): 29.97 in. Hg (1014 hPa)
ob: MMAA 040447Z 00000KT 6SM FEW090 25/22 A2997 RMK 8/030 HZY
cycle: 5

Station Type Date Time Source
MMAA TAF 2022/12/04 06:15 UTC NOAA

TAF TAF MMAA 040512Z 0406/0512 34005KT 6SM HZ SCT090 TX32/0419Z TN23/0412Z
FM041800 23008KT P6SM SCT100 BKN250
FM050600 34005KT P6SM SCT100

Example: see airport list